sensor_id;sensor_type;location;lat;lon;timestamp;temperature;humidity
10583;DHT22;33679;51.218;6.786;2022-07-24T00:01:59;23.90;99.90
10583;DHT22;33679;51.218;6.786;2022-07-24T00:04:26;23.90;99.90
10583;DHT22;33679;51.218;6.786;2022-07-24T00:06:55;23.80;99.90
10583;DHT22;33679;51.218;6.786;2022-07-24T00:09:22;23.80;99.90
10583;DHT22;33679;51.218;6.786;2022-07-24T00:11:49;23.80;99.90
10583;DHT22;33679;51.218;6.786;2022-07-24T00:14:16;23.80;99.90
10583;DHT22;33679;51.218;6.786;2022-07-24T00:16:43;23.80;99.90
10583;DHT22;33679;51.218;6.786;2022-07-24T00:19:10;23.70;99.90
10583;DHT22;33679;51.218;6.786;2022-07-24T00:21:40;23.70;99.90
10583;DHT22;33679;51.218;6.786;2022-07-24T00:24:08;23.80;99.90
10583;DHT22;33679;51.218;6.786;2022-07-24T00:26:35;23.70;99.90
10583;DHT22;33679;51.218;6.786;2022-07-24T00:29:02;23.70;99.90
10583;DHT22;33679;51.218;6.786;2022-07-24T00:31:30;23.70;99.90
10583;DHT22;33679;51.218;6.786;2022-07-24T00:33:57;23.70;99.90
10583;DHT22;33679;51.218;6.786;2022-07-24T00:36:24;23.70;99.90
10583;DHT22;33679;51.218;6.786;2022-07-24T00:38:51;23.60;99.90
10583;DHT22;33679;51.218;6.786;2022-07-24T00:41:19;23.60;99.90
10583;DHT22;33679;51.218;6.786;2022-07-24T00:43:59;23.60;99.90
10583;DHT22;33679;51.218;6.786;2022-07-24T00:46:27;23.60;99.90
10583;DHT22;33679;51.218;6.786;2022-07-24T00:48:54;23.50;99.90
10583;DHT22;33679;51.218;6.786;2022-07-24T00:51:21;23.50;99.90
10583;DHT22;33679;51.218;6.786;2022-07-24T00:53:48;23.50;99.90
10583;DHT22;33679;51.218;6.786;2022-07-24T00:56:15;23.50;99.90
10583;DHT22;33679;51.218;6.786;2022-07-24T00:58:44;23.50;99.90
10583;DHT22;33679;51.218;6.786;2022-07-24T01:01:11;23.40;99.90
10583;DHT22;33679;51.218;6.786;2022-07-24T01:03:41;23.40;99.90
10583;DHT22;33679;51.218;6.786;2022-07-24T01:06:08;23.40;99.90
10583;DHT22;33679;51.218;6.786;2022-07-24T01:08:35;23.40;99.90
10583;DHT22;33679;51.218;6.786;2022-07-24T01:11:03;23.40;99.90
10583;DHT22;33679;51.218;6.786;2022-07-24T01:13:30;23.40;99.90
10583;DHT22;33679;51.218;6.786;2022-07-24T01:15:59;23.30;99.90
10583;DHT22;33679;51.218;6.786;2022-07-24T01:18:26;23.30;99.90
10583;DHT22;33679;51.218;6.786;2022-07-24T01:20:54;23.30;99.90
10583;DHT22;33679;51.218;6.786;2022-07-24T01:23:22;23.30;99.90
10583;DHT22;33679;51.218;6.786;2022-07-24T01:25:49;23.30;99.90
10583;DHT22;33679;51.218;6.786;2022-07-24T01:28:16;23.20;99.90
10583;DHT22;33679;51.218;6.786;2022-07-24T01:30:43;23.20;99.90
10583;DHT22;33679;51.218;6.786;2022-07-24T01:33:13;23.20;99.90
10583;DHT22;33679;51.218;6.786;2022-07-24T01:35:42;23.10;99.90
10583;DHT22;33679;51.218;6.786;2022-07-24T01:38:11;23.10;99.90
10583;DHT22;33679;51.218;6.786;2022-07-24T01:40:38;23.10;99.90
10583;DHT22;33679;51.218;6.786;2022-07-24T01:43:05;23.10;99.90
10583;DHT22;33679;51.218;6.786;2022-07-24T01:45:32;23.10;99.90
10583;DHT22;33679;51.218;6.786;2022-07-24T01:48:00;23.10;99.90
10583;DHT22;33679;51.218;6.786;2022-07-24T01:50:29;23.10;99.90
10583;DHT22;33679;51.218;6.786;2022-07-24T01:52:56;23.10;99.90
10583;DHT22;33679;51.218;6.786;2022-07-24T01:55:25;23.10;99.90
10583;DHT22;33679;51.218;6.786;2022-07-24T01:57:52;23.10;99.90
10583;DHT22;33679;51.218;6.786;2022-07-24T02:00:19;23.10;99.90
10583;DHT22;33679;51.218;6.786;2022-07-24T02:02:46;23.10;99.90
10583;DHT22;33679;51.218;6.786;2022-07-24T02:05:13;23.10;99.90
10583;DHT22;33679;51.218;6.786;2022-07-24T02:07:43;23.10;99.90
10583;DHT22;33679;51.218;6.786;2022-07-24T02:10:13;23.10;99.90
10583;DHT22;33679;51.218;6.786;2022-07-24T02:12:44;23.10;99.90
10583;DHT22;33679;51.218;6.786;2022-07-24T02:15:11;23.10;99.90
10583;DHT22;33679;51.218;6.786;2022-07-24T02:17:37;23.10;99.90
10583;DHT22;33679;51.218;6.786;2022-07-24T02:20:05;23.10;99.90
10583;DHT22;33679;51.218;6.786;2022-07-24T02:22:32;23.00;99.90
10583;DHT22;33679;51.218;6.786;2022-07-24T02:25:00;23.00;99.90
10583;DHT22;33679;51.218;6.786;2022-07-24T02:27:27;23.00;99.90
10583;DHT22;33679;51.218;6.786;2022-07-24T02:29:55;22.90;99.90
10583;DHT22;33679;51.218;6.786;2022-07-24T02:32:22;22.80;99.90
10583;DHT22;33679;51.218;6.786;2022-07-24T02:34:50;22.80;99.90
10583;DHT22;33679;51.218;6.786;2022-07-24T02:37:17;22.80;99.90
10583;DHT22;33679;51.218;6.786;2022-07-24T02:39:44;22.70;99.90
10583;DHT22;33679;51.218;6.786;2022-07-24T02:42:11;22.70;99.90
10583;DHT22;33679;51.218;6.786;2022-07-24T02:44:38;22.60;99.90
10583;DHT22;33679;51.218;6.786;2022-07-24T02:47:06;22.60;99.90
10583;DHT22;33679;51.218;6.786;2022-07-24T02:49:33;22.50;99.90
10583;DHT22;33679;51.218;6.786;2022-07-24T02:52:01;22.50;99.90
10583;DHT22;33679;51.218;6.786;2022-07-24T02:54:28;22.50;99.90
10583;DHT22;33679;51.218;6.786;2022-07-24T02:56:55;22.40;99.90
10583;DHT22;33679;51.218;6.786;2022-07-24T02:59:22;22.50;99.90
10583;DHT22;33679;51.218;6.786;2022-07-24T03:01:49;22.50;99.90
10583;DHT22;33679;51.218;6.786;2022-07-24T03:04:17;22.40;99.90
10583;DHT22;33679;51.218;6.786;2022-07-24T03:06:44;22.40;99.90
10583;DHT22;33679;51.218;6.786;2022-07-24T03:09:13;22.40;99.90
10583;DHT22;33679;51.218;6.786;2022-07-24T03:11:43;22.40;99.90
10583;DHT22;33679;51.218;6.786;2022-07-24T03:14:10;22.40;99.90
10583;DHT22;33679;51.218;6.786;2022-07-24T03:16:37;22.40;99.90
10583;DHT22;33679;51.218;6.786;2022-07-24T03:19:03;22.40;99.90
10583;DHT22;33679;51.218;6.786;2022-07-24T03:21:32;22.40;99.90
10583;DHT22;33679;51.218;6.786;2022-07-24T03:23:59;22.30;99.90
10583;DHT22;33679;51.218;6.786;2022-07-24T03:26:26;22.30;99.90
10583;DHT22;33679;51.218;6.786;2022-07-24T03:28:55;22.40;99.90
10583;DHT22;33679;51.218;6.786;2022-07-24T03:31:22;22.30;99.90
10583;DHT22;33679;51.218;6.786;2022-07-24T03:33:49;22.40;99.90
10583;DHT22;33679;51.218;6.786;2022-07-24T03:36:16;22.30;99.90
10583;DHT22;33679;51.218;6.786;2022-07-24T03:38:44;22.40;99.90
10583;DHT22;33679;51.218;6.786;2022-07-24T03:41:11;22.40;99.90
10583;DHT22;33679;51.218;6.786;2022-07-24T03:43:39;22.40;99.90
10583;DHT22;33679;51.218;6.786;2022-07-24T03:46:05;22.30;99.90
10583;DHT22;33679;51.218;6.786;2022-07-24T03:48:32;22.30;99.90
10583;DHT22;33679;51.218;6.786;2022-07-24T03:50:59;22.30;99.90
10583;DHT22;33679;51.218;6.786;2022-07-24T03:53:26;22.40;99.90
10583;DHT22;33679;51.218;6.786;2022-07-24T03:55:55;22.30;99.90
10583;DHT22;33679;51.218;6.786;2022-07-24T03:58:22;22.30;99.90
10583;DHT22;33679;51.218;6.786;2022-07-24T04:00:49;22.30;99.90
10583;DHT22;33679;51.218;6.786;2022-07-24T04:03:16;22.40;99.90
10583;DHT22;33679;51.218;6.786;2022-07-24T04:05:45;22.40;99.90
10583;DHT22;33679;51.218;6.786;2022-07-24T04:08:12;22.30;99.90
10583;DHT22;33679;51.218;6.786;2022-07-24T04:10:39;22.40;99.90
10583;DHT22;33679;51.218;6.786;2022-07-24T04:13:10;22.40;99.90
10583;DHT22;33679;51.218;6.786;2022-07-24T04:15:37;22.40;99.90
10583;DHT22;33679;51.218;6.786;2022-07-24T04:18:07;22.50;99.90
10583;DHT22;33679;51.218;6.786;2022-07-24T04:20:35;22.50;99.90
10583;DHT22;33679;51.218;6.786;2022-07-24T04:23:02;22.50;99.90
10583;DHT22;33679;51.218;6.786;2022-07-24T04:25:31;22.50;99.90
10583;DHT22;33679;51.218;6.786;2022-07-24T04:28:00;22.50;99.90
10583;DHT22;33679;51.218;6.786;2022-07-24T04:30:30;22.50;99.90
10583;DHT22;33679;51.218;6.786;2022-07-24T04:32:57;22.50;99.90
10583;DHT22;33679;51.218;6.786;2022-07-24T04:35:24;22.50;99.90
10583;DHT22;33679;51.218;6.786;2022-07-24T04:37:53;22.60;99.90
10583;DHT22;33679;51.218;6.786;2022-07-24T04:40:20;22.60;99.90
10583;DHT22;33679;51.218;6.786;2022-07-24T04:42:47;22.60;99.90
10583;DHT22;33679;51.218;6.786;2022-07-24T04:45:14;22.70;99.90
10583;DHT22;33679;51.218;6.786;2022-07-24T04:47:42;22.70;99.90
10583;DHT22;33679;51.218;6.786;2022-07-24T04:50:09;22.70;99.90
10583;DHT22;33679;51.218;6.786;2022-07-24T04:52:36;22.70;99.90
10583;DHT22;33679;51.218;6.786;2022-07-24T04:55:06;22.70;99.90
10583;DHT22;33679;51.218;6.786;2022-07-24T04:57:36;22.80;99.90
10583;DHT22;33679;51.218;6.786;2022-07-24T05:00:03;22.80;99.90
10583;DHT22;33679;51.218;6.786;2022-07-24T05:02:31;22.80;99.90
10583;DHT22;33679;51.218;6.786;2022-07-24T05:05:00;22.90;99.90
10583;DHT22;33679;51.218;6.786;2022-07-24T05:07:27;22.90;99.90
10583;DHT22;33679;51.218;6.786;2022-07-24T05:09:54;23.00;99.90
10583;DHT22;33679;51.218;6.786;2022-07-24T05:12:21;23.00;99.90
10583;DHT22;33679;51.218;6.786;2022-07-24T05:14:48;23.10;99.90
10583;DHT22;33679;51.218;6.786;2022-07-24T05:17:15;23.20;99.90
10583;DHT22;33679;51.218;6.786;2022-07-24T05:19:42;23.30;99.90
10583;DHT22;33679;51.218;6.786;2022-07-24T05:22:11;23.30;99.90
10583;DHT22;33679;51.218;6.786;2022-07-24T05:24:40;23.40;99.90
10583;DHT22;33679;51.218;6.786;2022-07-24T05:27:07;23.40;99.90
10583;DHT22;33679;51.218;6.786;2022-07-24T05:29:34;23.40;99.90
10583;DHT22;33679;51.218;6.786;2022-07-24T05:32:01;23.60;99.90
10583;DHT22;33679;51.218;6.786;2022-07-24T05:34:28;23.60;99.90
10583;DHT22;33679;51.218;6.786;2022-07-24T05:36:59;23.80;99.90
10583;DHT22;33679;51.218;6.786;2022-07-24T05:39:31;23.80;99.90
10583;DHT22;33679;51.218;6.786;2022-07-24T05:41:59;23.90;99.90
10583;DHT22;33679;51.218;6.786;2022-07-24T05:44:26;23.90;99.90
10583;DHT22;33679;51.218;6.786;2022-07-24T05:46:53;24.00;99.90
10583;DHT22;33679;51.218;6.786;2022-07-24T05:49:20;24.00;99.90
10583;DHT22;33679;51.218;6.786;2022-07-24T05:51:50;24.10;99.90
10583;DHT22;33679;51.218;6.786;2022-07-24T05:54:17;24.20;99.90
10583;DHT22;33679;51.218;6.786;2022-07-24T05:56:47;24.20;99.90
10583;DHT22;33679;51.218;6.786;2022-07-24T05:59:14;24.30;99.90
10583;DHT22;33679;51.218;6.786;2022-07-24T06:01:41;24.30;99.90
10583;DHT22;33679;51.218;6.786;2022-07-24T06:04:08;24.40;99.90
10583;DHT22;33679;51.218;6.786;2022-07-24T06:06:35;24.60;99.90
10583;DHT22;33679;51.218;6.786;2022-07-24T06:09:02;25.00;99.90
10583;DHT22;33679;51.218;6.786;2022-07-24T06:11:29;25.70;99.90
10583;DHT22;33679;51.218;6.786;2022-07-24T06:13:58;26.40;99.90
10583;DHT22;33679;51.218;6.786;2022-07-24T06:16:25;27.00;99.90
10583;DHT22;33679;51.218;6.786;2022-07-24T06:18:52;27.30;99.90
10583;DHT22;33679;51.218;6.786;2022-07-24T06:21:19;27.40;99.90
10583;DHT22;33679;51.218;6.786;2022-07-24T06:23:46;27.40;99.90
10583;DHT22;33679;51.218;6.786;2022-07-24T06:26:13;27.30;99.90
10583;DHT22;33679;51.218;6.786;2022-07-24T06:28:40;27.20;99.90
10583;DHT22;33679;51.218;6.786;2022-07-24T06:31:09;27.20;99.90
10583;DHT22;33679;51.218;6.786;2022-07-24T06:33:36;27.00;99.90
10583;DHT22;33679;51.218;6.786;2022-07-24T06:36:03;26.90;99.90
10583;DHT22;33679;51.218;6.786;2022-07-24T06:38:30;26.80;99.90
10583;DHT22;33679;51.218;6.786;2022-07-24T06:40:57;26.70;99.90
10583;DHT22;33679;51.218;6.786;2022-07-24T06:43:27;26.60;99.90
10583;DHT22;33679;51.218;6.786;2022-07-24T06:45:54;26.50;99.90
10583;DHT22;33679;51.218;6.786;2022-07-24T06:48:23;26.40;99.90
10583;DHT22;33679;51.218;6.786;2022-07-24T06:50:50;26.30;99.90
10583;DHT22;33679;51.218;6.786;2022-07-24T06:53:17;26.30;99.90
10583;DHT22;33679;51.218;6.786;2022-07-24T06:55:44;26.20;99.90
10583;DHT22;33679;51.218;6.786;2022-07-24T06:58:14;26.10;99.90
10583;DHT22;33679;51.218;6.786;2022-07-24T07:00:41;26.00;99.90
10583;DHT22;33679;51.218;6.786;2022-07-24T07:03:08;26.00;99.90
10583;DHT22;33679;51.218;6.786;2022-07-24T07:05:37;26.00;99.90
10583;DHT22;33679;51.218;6.786;2022-07-24T07:08:04;26.00;99.90
10583;DHT22;33679;51.218;6.786;2022-07-24T07:10:31;26.00;99.90
10583;DHT22;33679;51.218;6.786;2022-07-24T07:12:58;25.90;99.90
10583;DHT22;33679;51.218;6.786;2022-07-24T07:15:26;25.90;99.90
10583;DHT22;33679;51.218;6.786;2022-07-24T07:17:53;25.70;99.90
10583;DHT22;33679;51.218;6.786;2022-07-24T07:20:20;25.80;99.90
10583;DHT22;33679;51.218;6.786;2022-07-24T07:22:49;25.60;99.90
10583;DHT22;33679;51.218;6.786;2022-07-24T07:25:17;25.60;99.90
10583;DHT22;33679;51.218;6.786;2022-07-24T07:27:44;25.50;99.90
10583;DHT22;33679;51.218;6.786;2022-07-24T07:30:11;25.60;99.90
10583;DHT22;33679;51.218;6.786;2022-07-24T07:32:39;25.60;99.90
10583;DHT22;33679;51.218;6.786;2022-07-24T07:35:06;25.70;99.90
10583;DHT22;33679;51.218;6.786;2022-07-24T07:37:33;25.70;99.90
10583;DHT22;33679;51.218;6.786;2022-07-24T07:40:02;25.70;99.90
10583;DHT22;33679;51.218;6.786;2022-07-24T07:42:29;25.80;99.90
10583;DHT22;33679;51.218;6.786;2022-07-24T07:44:56;25.70;99.90
10583;DHT22;33679;51.218;6.786;2022-07-24T07:47:23;25.70;99.90
10583;DHT22;33679;51.218;6.786;2022-07-24T07:49:50;25.80;99.90
10583;DHT22;33679;51.218;6.786;2022-07-24T07:52:17;25.80;99.90
10583;DHT22;33679;51.218;6.786;2022-07-24T07:54:44;25.80;99.90
10583;DHT22;33679;51.218;6.786;2022-07-24T07:57:13;25.90;99.90
10583;DHT22;33679;51.218;6.786;2022-07-24T07:59:40;26.00;99.90
10583;DHT22;33679;51.218;6.786;2022-07-24T08:02:07;26.00;99.90
10583;DHT22;33679;51.218;6.786;2022-07-24T08:04:34;26.00;99.90
10583;DHT22;33679;51.218;6.786;2022-07-24T08:07:02;26.20;99.90
10583;DHT22;33679;51.218;6.786;2022-07-24T08:09:29;26.20;99.90
10583;DHT22;33679;51.218;6.786;2022-07-24T08:11:56;26.30;99.90
10583;DHT22;33679;51.218;6.786;2022-07-24T08:14:24;26.30;99.90
10583;DHT22;33679;51.218;6.786;2022-07-24T08:16:51;26.40;99.90
10583;DHT22;33679;51.218;6.786;2022-07-24T08:19:19;26.40;99.90
10583;DHT22;33679;51.218;6.786;2022-07-24T08:21:46;26.40;99.90
10583;DHT22;33679;51.218;6.786;2022-07-24T08:24:13;26.50;99.90
10583;DHT22;33679;51.218;6.786;2022-07-24T08:26:46;26.60;99.90
10583;DHT22;33679;51.218;6.786;2022-07-24T08:29:13;26.60;99.90
10583;DHT22;33679;51.218;6.786;2022-07-24T08:31:42;26.60;99.90
10583;DHT22;33679;51.218;6.786;2022-07-24T08:34:09;26.70;99.90
10583;DHT22;33679;51.218;6.786;2022-07-24T08:36:39;26.70;99.90
10583;DHT22;33679;51.218;6.786;2022-07-24T08:39:11;26.80;99.90
10583;DHT22;33679;51.218;6.786;2022-07-24T08:41:39;26.80;99.90
10583;DHT22;33679;51.218;6.786;2022-07-24T08:44:09;26.80;99.90
10583;DHT22;33679;51.218;6.786;2022-07-24T08:46:37;26.80;99.90
10583;DHT22;33679;51.218;6.786;2022-07-24T08:49:09;27.00;99.90
10583;DHT22;33679;51.218;6.786;2022-07-24T08:51:37;27.00;99.90
10583;DHT22;33679;51.218;6.786;2022-07-24T08:54:05;27.10;99.90
10583;DHT22;33679;51.218;6.786;2022-07-24T08:56:32;27.10;99.90
10583;DHT22;33679;51.218;6.786;2022-07-24T08:59:04;27.10;99.90
10583;DHT22;33679;51.218;6.786;2022-07-24T09:01:31;27.40;99.90
10583;DHT22;33679;51.218;6.786;2022-07-24T09:03:59;27.40;99.90
10583;DHT22;33679;51.218;6.786;2022-07-24T09:06:27;27.40;99.90
10583;DHT22;33679;51.218;6.786;2022-07-24T09:08:59;27.50;99.90
10583;DHT22;33679;51.218;6.786;2022-07-24T09:11:29;27.50;99.90
10583;DHT22;33679;51.218;6.786;2022-07-24T09:13:59;27.50;99.90
10583;DHT22;33679;51.218;6.786;2022-07-24T09:16:44;27.70;99.90
10583;DHT22;33679;51.218;6.786;2022-07-24T09:19:13;27.80;99.90
10583;DHT22;33679;51.218;6.786;2022-07-24T09:21:43;27.70;99.90
10583;DHT22;33679;51.218;6.786;2022-07-24T09:24:17;27.70;99.90
10583;DHT22;33679;51.218;6.786;2022-07-24T09:26:45;27.80;99.90
10583;DHT22;33679;51.218;6.786;2022-07-24T09:29:15;27.70;99.90
10583;DHT22;33679;51.218;6.786;2022-07-24T09:34:39;27.90;99.90
10583;DHT22;33679;51.218;6.786;2022-07-24T09:37:10;28.00;99.90
10583;DHT22;33679;51.218;6.786;2022-07-24T09:39:39;28.10;99.90
10583;DHT22;33679;51.218;6.786;2022-07-24T09:42:06;28.10;99.90
10583;DHT22;33679;51.218;6.786;2022-07-24T09:44:34;28.20;99.90
10583;DHT22;33679;51.218;6.786;2022-07-24T09:47:05;28.30;99.90
10583;DHT22;33679;51.218;6.786;2022-07-24T09:49:32;28.30;99.90
10583;DHT22;33679;51.218;6.786;2022-07-24T09:52:06;28.40;99.90
10583;DHT22;33679;51.218;6.786;2022-07-24T09:54:37;28.40;99.90
10583;DHT22;33679;51.218;6.786;2022-07-24T09:57:17;28.50;99.90
10583;DHT22;33679;51.218;6.786;2022-07-24T09:59:47;28.50;99.90
10583;DHT22;33679;51.218;6.786;2022-07-24T10:02:17;28.50;99.90
10583;DHT22;33679;51.218;6.786;2022-07-24T10:04:48;28.50;99.90
10583;DHT22;33679;51.218;6.786;2022-07-24T10:07:16;28.50;99.90
10583;DHT22;33679;51.218;6.786;2022-07-24T10:09:46;28.60;99.90
10583;DHT22;33679;51.218;6.786;2022-07-24T10:12:17;28.60;99.90
10583;DHT22;33679;51.218;6.786;2022-07-24T10:14:48;28.70;99.90
10583;DHT22;33679;51.218;6.786;2022-07-24T10:17:16;28.80;99.90
10583;DHT22;33679;51.218;6.786;2022-07-24T10:19:44;28.80;99.90
10583;DHT22;33679;51.218;6.786;2022-07-24T10:22:13;28.80;99.90
10583;DHT22;33679;51.218;6.786;2022-07-24T10:24:52;28.90;99.90
10583;DHT22;33679;51.218;6.786;2022-07-24T10:27:24;29.00;99.90
10583;DHT22;33679;51.218;6.786;2022-07-24T10:29:52;29.20;99.90
10583;DHT22;33679;51.218;6.786;2022-07-24T10:32:26;29.10;99.90
10583;DHT22;33679;51.218;6.786;2022-07-24T10:37:45;29.30;99.90
10583;DHT22;33679;51.218;6.786;2022-07-24T10:40:20;29.30;99.90
10583;DHT22;33679;51.218;6.786;2022-07-24T10:45:42;29.40;99.90
10583;DHT22;33679;51.218;6.786;2022-07-24T10:48:27;29.50;99.90
10583;DHT22;33679;51.218;6.786;2022-07-24T10:51:03;29.60;99.90
10583;DHT22;33679;51.218;6.786;2022-07-24T10:53:43;29.70;99.90
10583;DHT22;33679;51.218;6.786;2022-07-24T10:56:16;29.70;99.90
10583;DHT22;33679;51.218;6.786;2022-07-24T10:59:00;29.90;99.90
10583;DHT22;33679;51.218;6.786;2022-07-24T11:01:35;29.90;99.90
10583;DHT22;33679;51.218;6.786;2022-07-24T11:04:03;29.90;99.90
10583;DHT22;33679;51.218;6.786;2022-07-24T11:06:38;30.00;99.90
10583;DHT22;33679;51.218;6.786;2022-07-24T11:09:10;30.10;99.90
10583;DHT22;33679;51.218;6.786;2022-07-24T11:11:42;30.20;99.90
10583;DHT22;33679;51.218;6.786;2022-07-24T11:14:46;30.20;99.90
10583;DHT22;33679;51.218;6.786;2022-07-24T11:19:58;30.40;99.90
10583;DHT22;33679;51.218;6.786;2022-07-24T11:22:37;30.30;99.90
10583;DHT22;33679;51.218;6.786;2022-07-24T11:25:09;30.30;99.90
10583;DHT22;33679;51.218;6.786;2022-07-24T11:27:42;30.20;99.90
10583;DHT22;33679;51.218;6.786;2022-07-24T11:30:10;30.20;99.90
10583;DHT22;33679;51.218;6.786;2022-07-24T11:32:41;30.30;99.90
10583;DHT22;33679;51.218;6.786;2022-07-24T11:35:09;30.30;99.40
10583;DHT22;33679;51.218;6.786;2022-07-24T11:37:36;30.30;99.40
10583;DHT22;33679;51.218;6.786;2022-07-24T11:40:08;30.30;99.10
10583;DHT22;33679;51.218;6.786;2022-07-24T11:42:40;30.40;98.70
10583;DHT22;33679;51.218;6.786;2022-07-24T11:45:09;30.40;98.40
10583;DHT22;33679;51.218;6.786;2022-07-24T11:47:36;30.40;98.00
10583;DHT22;33679;51.218;6.786;2022-07-24T11:50:04;30.40;97.40
10583;DHT22;33679;51.218;6.786;2022-07-24T11:52:33;30.30;97.40
10583;DHT22;33679;51.218;6.786;2022-07-24T11:55:01;30.30;97.60
10583;DHT22;33679;51.218;6.786;2022-07-24T11:57:30;30.40;98.00
10583;DHT22;33679;51.218;6.786;2022-07-24T11:59:57;30.50;98.20
10583;DHT22;33679;51.218;6.786;2022-07-24T12:02:26;30.50;98.20
10583;DHT22;33679;51.218;6.786;2022-07-24T12:04:53;30.40;97.60
10583;DHT22;33679;51.218;6.786;2022-07-24T12:07:21;30.60;97.90
10583;DHT22;33679;51.218;6.786;2022-07-24T12:09:49;30.50;97.90
10583;DHT22;33679;51.218;6.786;2022-07-24T12:12:18;30.50;97.90
10583;DHT22;33679;51.218;6.786;2022-07-24T12:14:45;30.50;98.00
10583;DHT22;33679;51.218;6.786;2022-07-24T12:17:13;30.50;97.90
10583;DHT22;33679;51.218;6.786;2022-07-24T12:19:43;30.40;97.90
10583;DHT22;33679;51.218;6.786;2022-07-24T12:22:17;30.60;97.30
10583;DHT22;33679;51.218;6.786;2022-07-24T12:24:44;30.60;96.90
10583;DHT22;33679;51.218;6.786;2022-07-24T12:27:11;30.60;97.00
10583;DHT22;33679;51.218;6.786;2022-07-24T12:29:41;30.60;96.90
10583;DHT22;33679;51.218;6.786;2022-07-24T12:32:18;30.60;96.60
10583;DHT22;33679;51.218;6.786;2022-07-24T12:34:47;30.60;96.70
10583;DHT22;33679;51.218;6.786;2022-07-24T12:37:15;30.60;96.80
10583;DHT22;33679;51.218;6.786;2022-07-24T12:39:45;30.70;96.70
10583;DHT22;33679;51.218;6.786;2022-07-24T12:42:15;30.70;96.80
10583;DHT22;33679;51.218;6.786;2022-07-24T12:44:43;30.80;96.60
10583;DHT22;33679;51.218;6.786;2022-07-24T12:47:11;30.80;96.90
10583;DHT22;33679;51.218;6.786;2022-07-24T12:49:41;30.90;96.60
10583;DHT22;33679;51.218;6.786;2022-07-24T12:52:20;30.90;96.50
10583;DHT22;33679;51.218;6.786;2022-07-24T12:54:50;31.00;96.50
10583;DHT22;33679;51.218;6.786;2022-07-24T12:57:20;31.20;96.20
10583;DHT22;33679;51.218;6.786;2022-07-24T12:59:47;31.20;96.10
10583;DHT22;33679;51.218;6.786;2022-07-24T13:02:15;31.20;96.00
10583;DHT22;33679;51.218;6.786;2022-07-24T13:04:43;31.20;96.00
10583;DHT22;33679;51.218;6.786;2022-07-24T13:07:11;31.30;95.90
10583;DHT22;33679;51.218;6.786;2022-07-24T13:09:40;31.30;95.90
10583;DHT22;33679;51.218;6.786;2022-07-24T13:12:08;31.40;96.00
10583;DHT22;33679;51.218;6.786;2022-07-24T13:14:36;31.50;96.00
10583;DHT22;33679;51.218;6.786;2022-07-24T13:17:04;31.50;95.80
10583;DHT22;33679;51.218;6.786;2022-07-24T13:19:34;31.60;95.90
10583;DHT22;33679;51.218;6.786;2022-07-24T13:22:02;31.70;96.00
10583;DHT22;33679;51.218;6.786;2022-07-24T13:24:29;31.80;96.20
10583;DHT22;33679;51.218;6.786;2022-07-24T13:26:57;31.60;96.40
10583;DHT22;33679;51.218;6.786;2022-07-24T13:29:25;31.60;96.60
10583;DHT22;33679;51.218;6.786;2022-07-24T13:31:52;31.60;96.50
10583;DHT22;33679;51.218;6.786;2022-07-24T13:34:19;31.70;96.40
10583;DHT22;33679;51.218;6.786;2022-07-24T13:36:46;31.70;96.30
10583;DHT22;33679;51.218;6.786;2022-07-24T13:39:15;31.80;96.20
10583;DHT22;33679;51.218;6.786;2022-07-24T13:41:43;31.90;96.10
10583;DHT22;33679;51.218;6.786;2022-07-24T13:44:11;31.90;96.20
10583;DHT22;33679;51.218;6.786;2022-07-24T13:46:39;31.90;96.30
10583;DHT22;33679;51.218;6.786;2022-07-24T13:49:06;31.90;95.90
10583;DHT22;33679;51.218;6.786;2022-07-24T13:51:33;32.00;96.00
10583;DHT22;33679;51.218;6.786;2022-07-24T13:54:00;32.00;96.10
10583;DHT22;33679;51.218;6.786;2022-07-24T13:56:28;32.00;96.20
10583;DHT22;33679;51.218;6.786;2022-07-24T13:58:57;32.00;96.10
10583;DHT22;33679;51.218;6.786;2022-07-24T14:01:26;32.00;96.00
10583;DHT22;33679;51.218;6.786;2022-07-24T14:03:54;32.00;96.10
10583;DHT22;33679;51.218;6.786;2022-07-24T14:06:21;32.10;96.10
10583;DHT22;33679;51.218;6.786;2022-07-24T14:08:48;32.10;96.10
10583;DHT22;33679;51.218;6.786;2022-07-24T14:11:18;32.20;96.10
10583;DHT22;33679;51.218;6.786;2022-07-24T14:13:46;32.20;96.10
10583;DHT22;33679;51.218;6.786;2022-07-24T14:16:13;32.20;96.20
10583;DHT22;33679;51.218;6.786;2022-07-24T14:18:42;32.20;96.20
10583;DHT22;33679;51.218;6.786;2022-07-24T14:21:10;32.20;96.20
10583;DHT22;33679;51.218;6.786;2022-07-24T14:23:37;32.30;96.10
10583;DHT22;33679;51.218;6.786;2022-07-24T14:26:06;32.30;96.00
10583;DHT22;33679;51.218;6.786;2022-07-24T14:28:47;32.40;95.90
10583;DHT22;33679;51.218;6.786;2022-07-24T14:31:21;32.40;95.70
10583;DHT22;33679;51.218;6.786;2022-07-24T14:33:53;32.40;95.80
10583;DHT22;33679;51.218;6.786;2022-07-24T14:36:20;32.30;95.90
10583;DHT22;33679;51.218;6.786;2022-07-24T14:38:47;32.30;95.90
10583;DHT22;33679;51.218;6.786;2022-07-24T14:41:15;32.40;95.70
10583;DHT22;33679;51.218;6.786;2022-07-24T14:43:42;32.40;95.80
10583;DHT22;33679;51.218;6.786;2022-07-24T14:46:10;32.40;95.70
10583;DHT22;33679;51.218;6.786;2022-07-24T14:48:37;32.40;95.70
10583;DHT22;33679;51.218;6.786;2022-07-24T14:51:05;32.40;95.60
10583;DHT22;33679;51.218;6.786;2022-07-24T14:53:35;32.40;95.40
10583;DHT22;33679;51.218;6.786;2022-07-24T14:56:02;32.40;95.60
10583;DHT22;33679;51.218;6.786;2022-07-24T14:58:30;32.40;95.60
10583;DHT22;33679;51.218;6.786;2022-07-24T15:00:57;32.50;95.60
10583;DHT22;33679;51.218;6.786;2022-07-24T15:03:25;32.50;95.40
10583;DHT22;33679;51.218;6.786;2022-07-24T15:05:59;32.60;95.40
10583;DHT22;33679;51.218;6.786;2022-07-24T15:08:27;32.70;95.20
10583;DHT22;33679;51.218;6.786;2022-07-24T15:10:54;32.70;94.80
10583;DHT22;33679;51.218;6.786;2022-07-24T15:13:22;32.80;94.70
10583;DHT22;33679;51.218;6.786;2022-07-24T15:15:49;32.70;94.70
10583;DHT22;33679;51.218;6.786;2022-07-24T15:18:17;32.80;94.70
10583;DHT22;33679;51.218;6.786;2022-07-24T15:20:44;32.80;94.50
10583;DHT22;33679;51.218;6.786;2022-07-24T15:23:12;32.80;94.50
10583;DHT22;33679;51.218;6.786;2022-07-24T15:25:41;32.80;94.30
10583;DHT22;33679;51.218;6.786;2022-07-24T15:28:08;32.80;94.70
10583;DHT22;33679;51.218;6.786;2022-07-24T15:30:35;32.70;94.40
10583;DHT22;33679;51.218;6.786;2022-07-24T15:33:02;32.60;94.20
10583;DHT22;33679;51.218;6.786;2022-07-24T15:35:31;32.60;94.30
10583;DHT22;33679;51.218;6.786;2022-07-24T15:37:58;32.70;94.10
10583;DHT22;33679;51.218;6.786;2022-07-24T15:40:25;32.70;94.00
10583;DHT22;33679;51.218;6.786;2022-07-24T15:42:59;32.70;94.00
10583;DHT22;33679;51.218;6.786;2022-07-24T15:45:27;32.80;94.00
10583;DHT22;33679;51.218;6.786;2022-07-24T15:47:59;32.80;93.90
10583;DHT22;33679;51.218;6.786;2022-07-24T15:50:26;32.80;93.90